sensor_id;sensor_type;location;lat;lon;timestamp;temperature;humidity
74484;SHT31;62942;52.462;10.846;2023-07-31T00:00:36;15;95.5
74484;SHT31;62942;52.462;10.846;2023-07-31T00:01:36;15;95.5
74484;SHT31;62942;52.462;10.846;2023-07-31T00:02:46;15;95.5
74484;SHT31;62942;52.462;10.846;2023-07-31T00:03:46;15;95.5
74484;SHT31;62942;52.462;10.846;2023-07-31T00:04:56;15;95.5
74484;SHT31;62942;52.462;10.846;2023-07-31T00:06:06;15;95.5
74484;SHT31;62942;52.462;10.846;2023-07-31T00:07:16;15;95.6
74484;SHT31;62942;52.462;10.846;2023-07-31T00:08:16;15;95.5
74484;SHT31;62942;52.462;10.846;2023-07-31T00:09:26;15;95.5
74484;SHT31;62942;52.462;10.846;2023-07-31T00:10:26;15;95.5
74484;SHT31;62942;52.462;10.846;2023-07-31T00:11:36;15;95.5
74484;SHT31;62942;52.462;10.846;2023-07-31T00:12:37;15;95.6
74484;SHT31;62942;52.462;10.846;2023-07-31T00:13:46;15;95.6
74484;SHT31;62942;52.462;10.846;2023-07-31T00:14:56;15;95.7
74484;SHT31;62942;52.462;10.846;2023-07-31T00:15:56;15;95.7
74484;SHT31;62942;52.462;10.846;2023-07-31T00:17:06;15;95.7
74484;SHT31;62942;52.462;10.846;2023-07-31T00:18:06;15;95.7
74484;SHT31;62942;52.462;10.846;2023-07-31T00:19:06;15;95.8
74484;SHT31;62942;52.462;10.846;2023-07-31T00:20:16;15.1;95.8
74484;SHT31;62942;52.462;10.846;2023-07-31T00:21:16;15.1;95.9
74484;SHT31;62942;52.462;10.846;2023-07-31T00:22:26;15;95.9
74484;SHT31;62942;52.462;10.846;2023-07-31T00:23:26;15;95.9
74484;SHT31;62942;52.462;10.846;2023-07-31T00:24:36;15;95.9
74484;SHT31;62942;52.462;10.846;2023-07-31T00:25:46;15;95.9
74484;SHT31;62942;52.462;10.846;2023-07-31T00:26:56;15.1;96
74484;SHT31;62942;52.462;10.846;2023-07-31T00:28:06;15.1;95.9
74484;SHT31;62942;52.462;10.846;2023-07-31T00:29:16;15.1;95.9
74484;SHT31;62942;52.462;10.846;2023-07-31T00:30:26;15;95.9
74484;SHT31;62942;52.462;10.846;2023-07-31T00:31:26;15.1;96
74484;SHT31;62942;52.462;10.846;2023-07-31T00:32:36;15;96
74484;SHT31;62942;52.462;10.846;2023-07-31T00:33:37;15.1;95.9
74484;SHT31;62942;52.462;10.846;2023-07-31T00:34:36;15;95.9
74484;SHT31;62942;52.462;10.846;2023-07-31T00:35:46;15;95.9
74484;SHT31;62942;52.462;10.846;2023-07-31T00:36:46;15;95.9
74484;SHT31;62942;52.462;10.846;2023-07-31T00:37:58;15;96
74484;SHT31;62942;52.462;10.846;2023-07-31T00:39:06;15;96.1
74484;SHT31;62942;52.462;10.846;2023-07-31T00:40:06;15;96.2
74484;SHT31;62942;52.462;10.846;2023-07-31T00:41:16;15;96.2
74484;SHT31;62942;52.462;10.846;2023-07-31T00:42:26;15;96.2
74484;SHT31;62942;52.462;10.846;2023-07-31T00:43:36;15;96.2
74484;SHT31;62942;52.462;10.846;2023-07-31T00:44:46;14.9;96.3
74484;SHT31;62942;52.462;10.846;2023-07-31T00:45:46;14.9;96.3
74484;SHT31;62942;52.462;10.846;2023-07-31T00:46:56;14.9;96.4
74484;SHT31;62942;52.462;10.846;2023-07-31T00:47:56;14.9;96.4
74484;SHT31;62942;52.462;10.846;2023-07-31T00:49:06;14.9;96.5
74484;SHT31;62942;52.462;10.846;2023-07-31T00:50:06;14.9;96.5
74484;SHT31;62942;52.462;10.846;2023-07-31T00:51:16;14.9;96.6
74484;SHT31;62942;52.462;10.846;2023-07-31T00:52:26;14.9;96.6
74484;SHT31;62942;52.462;10.846;2023-07-31T00:53:26;14.9;96.6
74484;SHT31;62942;52.462;10.846;2023-07-31T00:54:36;14.9;96.7
74484;SHT31;62942;52.462;10.846;2023-07-31T00:55:46;14.9;96.7
74484;SHT31;62942;52.462;10.846;2023-07-31T00:56:56;14.9;96.8
74484;SHT31;62942;52.462;10.846;2023-07-31T00:58:06;14.9;96.8
74484;SHT31;62942;52.462;10.846;2023-07-31T00:59:06;14.9;96.8
74484;SHT31;62942;52.462;10.846;2023-07-31T01:00:16;14.9;96.8
74484;SHT31;62942;52.462;10.846;2023-07-31T01:01:27;14.9;96.9
74484;SHT31;62942;52.462;10.846;2023-07-31T01:02:36;14.9;96.9
74484;SHT31;62942;52.462;10.846;2023-07-31T01:03:36;14.9;96.9
74484;SHT31;62942;52.462;10.846;2023-07-31T01:04:46;14.9;96.9
74484;SHT31;62942;52.462;10.846;2023-07-31T01:05:49;14.9;96.9
74484;SHT31;62942;52.462;10.846;2023-07-31T01:06:48;14.9;96.9
74484;SHT31;62942;52.462;10.846;2023-07-31T01:07:57;14.9;96.9
74484;SHT31;62942;52.462;10.846;2023-07-31T01:08:57;14.9;96.9
74484;SHT31;62942;52.462;10.846;2023-07-31T01:10:08;14.9;96.9
74484;SHT31;62942;52.462;10.846;2023-07-31T01:11:07;15;96.9
74484;SHT31;62942;52.462;10.846;2023-07-31T01:12:06;14.9;96.9
74484;SHT31;62942;52.462;10.846;2023-07-31T01:13:16;15;96.9
74484;SHT31;62942;52.462;10.846;2023-07-31T01:14:26;14.9;96.8
74484;SHT31;62942;52.462;10.846;2023-07-31T01:15:36;14.9;96.8
74484;SHT31;62942;52.462;10.846;2023-07-31T01:16:36;15;96.8
74484;SHT31;62942;52.462;10.846;2023-07-31T01:17:46;14.9;96.7
74484;SHT31;62942;52.462;10.846;2023-07-31T01:18:56;14.9;96.7
74484;SHT31;62942;52.462;10.846;2023-07-31T01:20:08;14.9;96.7
74484;SHT31;62942;52.462;10.846;2023-07-31T01:21:13;14.9;96.6
74484;SHT31;62942;52.462;10.846;2023-07-31T01:22:21;15;96.6
74484;SHT31;62942;52.462;10.846;2023-07-31T01:23:36;14.9;96.6
74484;SHT31;62942;52.462;10.846;2023-07-31T01:24:38;15;96.6
74484;SHT31;62942;52.462;10.846;2023-07-31T01:25:47;14.9;96.6
74484;SHT31;62942;52.462;10.846;2023-07-31T01:26:47;14.9;96.6
74484;SHT31;62942;52.462;10.846;2023-07-31T01:27:58;14.9;96.6
74484;SHT31;62942;52.462;10.846;2023-07-31T01:29:07;14.9;96.6
74484;SHT31;62942;52.462;10.846;2023-07-31T01:30:16;14.9;96.5
74484;SHT31;62942;52.462;10.846;2023-07-31T01:31:26;15;96.5
74484;SHT31;62942;52.462;10.846;2023-07-31T01:32:26;14.9;96.5
74484;SHT31;62942;52.462;10.846;2023-07-31T01:33:26;14.9;96.6
74484;SHT31;62942;52.462;10.846;2023-07-31T01:34:26;14.9;96.5
74484;SHT31;62942;52.462;10.846;2023-07-31T01:35:36;14.9;96.5
74484;SHT31;62942;52.462;10.846;2023-07-31T01:36:36;14.9;96.5
74484;SHT31;62942;52.462;10.846;2023-07-31T01:37:36;15;96.5
74484;SHT31;62942;52.462;10.846;2023-07-31T01:38:36;14.9;96.5
74484;SHT31;62942;52.462;10.846;2023-07-31T01:39:46;14.9;96.5
74484;SHT31;62942;52.462;10.846;2023-07-31T01:40:56;14.9;96.4
74484;SHT31;62942;52.462;10.846;2023-07-31T01:42:06;14.9;96.4
74484;SHT31;62942;52.462;10.846;2023-07-31T01:43:06;14.9;96.4
74484;SHT31;62942;52.462;10.846;2023-07-31T01:44:16;14.9;96.5
74484;SHT31;62942;52.462;10.846;2023-07-31T01:45:26;14.9;96.5
74484;SHT31;62942;52.462;10.846;2023-07-31T01:46:36;15;96.6
74484;SHT31;62942;52.462;10.846;2023-07-31T01:47:46;14.9;96.6
74484;SHT31;62942;52.462;10.846;2023-07-31T01:48:56;14.9;96.6
74484;SHT31;62942;52.462;10.846;2023-07-31T01:49:56;14.9;96.7
74484;SHT31;62942;52.462;10.846;2023-07-31T01:51:06;14.9;96.7
74484;SHT31;62942;52.462;10.846;2023-07-31T01:52:16;14.9;96.7
74484;SHT31;62942;52.462;10.846;2023-07-31T01:53:26;14.9;96.7
74484;SHT31;62942;52.462;10.846;2023-07-31T01:54:36;14.9;96.8
74484;SHT31;62942;52.462;10.846;2023-07-31T01:55:46;14.9;96.8
74484;SHT31;62942;52.462;10.846;2023-07-31T01:56:46;14.9;96.8
74484;SHT31;62942;52.462;10.846;2023-07-31T01:57:56;14.9;96.8
74484;SHT31;62942;52.462;10.846;2023-07-31T01:59:06;14.9;96.9
74484;SHT31;62942;52.462;10.846;2023-07-31T02:00:16;14.9;96.9
74484;SHT31;62942;52.462;10.846;2023-07-31T02:01:26;14.9;96.9
74484;SHT31;62942;52.462;10.846;2023-07-31T02:02:36;14.9;96.9
74484;SHT31;62942;52.462;10.846;2023-07-31T02:03:46;14.9;96.9
74484;SHT31;62942;52.462;10.846;2023-07-31T02:04:56;14.9;96.9
74484;SHT31;62942;52.462;10.846;2023-07-31T02:05:56;14.9;96.9
74484;SHT31;62942;52.462;10.846;2023-07-31T02:07:06;14.9;97
74484;SHT31;62942;52.462;10.846;2023-07-31T02:08:06;14.9;97
74484;SHT31;62942;52.462;10.846;2023-07-31T02:09:06;14.9;97
74484;SHT31;62942;52.462;10.846;2023-07-31T02:10:16;14.9;97
74484;SHT31;62942;52.462;10.846;2023-07-31T02:11:16;14.9;97
74484;SHT31;62942;52.462;10.846;2023-07-31T02:12:16;14.9;97
74484;SHT31;62942;52.462;10.846;2023-07-31T02:13:16;14.9;97
74484;SHT31;62942;52.462;10.846;2023-07-31T02:14:26;14.9;96.9
74484;SHT31;62942;52.462;10.846;2023-07-31T02:15:26;14.9;96.9
74484;SHT31;62942;52.462;10.846;2023-07-31T02:16:36;14.9;96.9
74484;SHT31;62942;52.462;10.846;2023-07-31T02:17:36;14.9;96.9
74484;SHT31;62942;52.462;10.846;2023-07-31T02:18:46;14.9;96.9
74484;SHT31;62942;52.462;10.846;2023-07-31T02:19:46;14.9;96.9
74484;SHT31;62942;52.462;10.846;2023-07-31T02:20:56;14.9;97
74484;SHT31;62942;52.462;10.846;2023-07-31T02:21:56;14.9;96.9
74484;SHT31;62942;52.462;10.846;2023-07-31T02:23:06;14.9;96.9
74484;SHT31;62942;52.462;10.846;2023-07-31T02:24:06;14.9;97
74484;SHT31;62942;52.462;10.846;2023-07-31T02:25:06;14.9;96.9
74484;SHT31;62942;52.462;10.846;2023-07-31T02:26:16;14.9;96.9
74484;SHT31;62942;52.462;10.846;2023-07-31T02:27:26;14.9;97
74484;SHT31;62942;52.462;10.846;2023-07-31T02:28:26;14.9;97
74484;SHT31;62942;52.462;10.846;2023-07-31T02:29:26;14.9;97
74484;SHT31;62942;52.462;10.846;2023-07-31T02:30:36;14.9;97
74484;SHT31;62942;52.462;10.846;2023-07-31T02:31:36;14.8;96.9
74484;SHT31;62942;52.462;10.846;2023-07-31T02:32:46;14.8;96.9
74484;SHT31;62942;52.462;10.846;2023-07-31T02:33:46;14.9;96.9
74484;SHT31;62942;52.462;10.846;2023-07-31T02:34:46;14.8;96.9
74484;SHT31;62942;52.462;10.846;2023-07-31T02:35:56;14.8;96.9
74484;SHT31;62942;52.462;10.846;2023-07-31T02:36:56;14.8;96.9
74484;SHT31;62942;52.462;10.846;2023-07-31T02:38:06;14.9;96.9
74484;SHT31;62942;52.462;10.846;2023-07-31T02:39:06;14.8;97
74484;SHT31;62942;52.462;10.846;2023-07-31T02:40:16;14.8;96.9
74484;SHT31;62942;52.462;10.846;2023-07-31T02:41:26;14.9;96.9
74484;SHT31;62942;52.462;10.846;2023-07-31T02:42:36;14.9;96.9
74484;SHT31;62942;52.462;10.846;2023-07-31T02:43:36;14.8;96.9
74484;SHT31;62942;52.462;10.846;2023-07-31T02:44:46;14.9;96.9
74484;SHT31;62942;52.462;10.846;2023-07-31T02:45:56;14.8;97
74484;SHT31;62942;52.462;10.846;2023-07-31T02:47:06;14.8;97
74484;SHT31;62942;52.462;10.846;2023-07-31T02:48:06;14.8;97
74484;SHT31;62942;52.462;10.846;2023-07-31T02:49:16;14.8;97.1
74484;SHT31;62942;52.462;10.846;2023-07-31T02:50:26;14.8;97.1
74484;SHT31;62942;52.462;10.846;2023-07-31T02:51:36;14.8;97.1
74484;SHT31;62942;52.462;10.846;2023-07-31T02:52:46;14.8;97.1
74484;SHT31;62942;52.462;10.846;2023-07-31T02:53:56;14.8;97.1
74484;SHT31;62942;52.462;10.846;2023-07-31T02:54:56;14.8;97.1
74484;SHT31;62942;52.462;10.846;2023-07-31T02:56:06;14.8;97.1
74484;SHT31;62942;52.462;10.846;2023-07-31T02:57:16;14.8;97
74484;SHT31;62942;52.462;10.846;2023-07-31T02:58:26;14.8;97
74484;SHT31;62942;52.462;10.846;2023-07-31T02:59:27;14.8;97
74484;SHT31;62942;52.462;10.846;2023-07-31T03:00:36;14.9;97
74484;SHT31;62942;52.462;10.846;2023-07-31T03:01:36;14.8;97
74484;SHT31;62942;52.462;10.846;2023-07-31T03:02:46;14.9;97
74484;SHT31;62942;52.462;10.846;2023-07-31T03:03:46;14.9;97
74484;SHT31;62942;52.462;10.846;2023-07-31T03:04:56;14.9;96.9
74484;SHT31;62942;52.462;10.846;2023-07-31T03:05:56;14.8;97
74484;SHT31;62942;52.462;10.846;2023-07-31T03:06:56;14.9;97
74484;SHT31;62942;52.462;10.846;2023-07-31T03:08:06;14.9;97
74484;SHT31;62942;52.462;10.846;2023-07-31T03:09:06;14.9;97
74484;SHT31;62942;52.462;10.846;2023-07-31T03:10:06;14.9;97
74484;SHT31;62942;52.462;10.846;2023-07-31T03:11:16;14.9;97
74484;SHT31;62942;52.462;10.846;2023-07-31T03:12:16;14.9;96.9
74484;SHT31;62942;52.462;10.846;2023-07-31T03:13:26;14.9;97
74484;SHT31;62942;52.462;10.846;2023-07-31T03:14:26;14.9;96.9
74484;SHT31;62942;52.462;10.846;2023-07-31T03:15:36;14.9;97
74484;SHT31;62942;52.462;10.846;2023-07-31T03:16:46;14.9;97
74484;SHT31;62942;52.462;10.846;2023-07-31T03:17:56;14.9;97.1
74484;SHT31;62942;52.462;10.846;2023-07-31T03:19:06;14.9;97.1
74484;SHT31;62942;52.462;10.846;2023-07-31T03:20:16;14.9;97
74484;SHT31;62942;52.462;10.846;2023-07-31T03:21:26;14.9;97.1
74484;SHT31;62942;52.462;10.846;2023-07-31T03:22:36;14.8;97.1
74484;SHT31;62942;52.462;10.846;2023-07-31T03:23:46;14.8;97.2
74484;SHT31;62942;52.462;10.846;2023-07-31T03:24:56;14.9;97.2
74484;SHT31;62942;52.462;10.846;2023-07-31T03:25:56;14.9;97.1
74484;SHT31;62942;52.462;10.846;2023-07-31T03:27:06;14.9;97.2
74484;SHT31;62942;52.462;10.846;2023-07-31T03:28:06;14.8;97.2
74484;SHT31;62942;52.462;10.846;2023-07-31T03:29:16;14.9;97.2
74484;SHT31;62942;52.462;10.846;2023-07-31T03:30:26;14.8;97.2
74484;SHT31;62942;52.462;10.846;2023-07-31T03:31:36;14.8;97.3
74484;SHT31;62942;52.462;10.846;2023-07-31T03:32:46;14.9;97.3
74484;SHT31;62942;52.462;10.846;2023-07-31T03:33:46;14.8;97.3
74484;SHT31;62942;52.462;10.846;2023-07-31T03:34:56;14.9;97.3
74484;SHT31;62942;52.462;10.846;2023-07-31T03:36:06;14.9;97.3
74484;SHT31;62942;52.462;10.846;2023-07-31T03:37:06;14.9;97.4
74484;SHT31;62942;52.462;10.846;2023-07-31T03:38:16;14.9;97.3
74484;SHT31;62942;52.462;10.846;2023-07-31T03:39:16;14.9;97.3
74484;SHT31;62942;52.462;10.846;2023-07-31T03:40:26;14.8;97.4
74484;SHT31;62942;52.462;10.846;2023-07-31T03:41:26;14.9;97.4
74484;SHT31;62942;52.462;10.846;2023-07-31T03:42:36;14.9;97.4
74484;SHT31;62942;52.462;10.846;2023-07-31T03:43:36;14.9;97.4
74484;SHT31;62942;52.462;10.846;2023-07-31T03:44:36;14.9;97.4
74484;SHT31;62942;52.462;10.846;2023-07-31T03:45:46;14.9;97.5
74484;SHT31;62942;52.462;10.846;2023-07-31T03:46:56;14.9;97.5
74484;SHT31;62942;52.462;10.846;2023-07-31T03:47:56;14.9;97.5
74484;SHT31;62942;52.462;10.846;2023-07-31T03:48:56;14.9;97.6
74484;SHT31;62942;52.462;10.846;2023-07-31T03:50:06;14.9;97.6
74484;SHT31;62942;52.462;10.846;2023-07-31T03:51:06;14.9;97.6
74484;SHT31;62942;52.462;10.846;2023-07-31T03:52:16;14.9;97.6
74484;SHT31;62942;52.462;10.846;2023-07-31T03:53:26;14.9;97.7
74484;SHT31;62942;52.462;10.846;2023-07-31T03:54:26;14.9;97.7
74484;SHT31;62942;52.462;10.846;2023-07-31T03:55:36;15;97.7
74484;SHT31;62942;52.462;10.846;2023-07-31T03:56:45;15;97.7
74484;SHT31;62942;52.462;10.846;2023-07-31T03:57:46;15;97.7
74484;SHT31;62942;52.462;10.846;2023-07-31T03:58:56;15;97.7
74484;SHT31;62942;52.462;10.846;2023-07-31T03:59:56;15;97.7
74484;SHT31;62942;52.462;10.846;2023-07-31T04:01:06;15;97.8
74484;SHT31;62942;52.462;10.846;2023-07-31T04:02:15;15;97.7
74484;SHT31;62942;52.462;10.846;2023-07-31T04:03:26;15;97.7
74484;SHT31;62942;52.462;10.846;2023-07-31T04:04:36;15;97.8
74484;SHT31;62942;52.462;10.846;2023-07-31T04:05:46;15;97.8
74484;SHT31;62942;52.462;10.846;2023-07-31T04:06:56;15;97.8
74484;SHT31;62942;52.462;10.846;2023-07-31T04:08:06;15;97.8
74484;SHT31;62942;52.462;10.846;2023-07-31T04:09:16;15;97.8
74484;SHT31;62942;52.462;10.846;2023-07-31T04:10:26;15;97.8
74484;SHT31;62942;52.462;10.846;2023-07-31T04:11:26;15;97.8
74484;SHT31;62942;52.462;10.846;2023-07-31T04:12:36;15;97.8
74484;SHT31;62942;52.462;10.846;2023-07-31T04:13:45;15.1;97.8
74484;SHT31;62942;52.462;10.846;2023-07-31T04:14:46;15;97.8
74484;SHT31;62942;52.462;10.846;2023-07-31T04:15:56;15;97.8
74484;SHT31;62942;52.462;10.846;2023-07-31T04:16:56;15;97.8
74484;SHT31;62942;52.462;10.846;2023-07-31T04:18:06;15.1;97.8
74484;SHT31;62942;52.462;10.846;2023-07-31T04:19:16;15.1;97.8
74484;SHT31;62942;52.462;10.846;2023-07-31T04:20:26;15.1;97.8
74484;SHT31;62942;52.462;10.846;2023-07-31T04:21:26;15.1;97.7
74484;SHT31;62942;52.462;10.846;2023-07-31T04:22:36;15.1;97.8
74484;SHT31;62942;52.462;10.846;2023-07-31T04:23:36;15.1;97.8
74484;SHT31;62942;52.462;10.846;2023-07-31T04:24:46;15.1;97.8
74484;SHT31;62942;52.462;10.846;2023-07-31T04:25:56;15.1;97.8
74484;SHT31;62942;52.462;10.846;2023-07-31T04:27:05;15.1;97.8
74484;SHT31;62942;52.462;10.846;2023-07-31T04:28:06;15.1;97.8
74484;SHT31;62942;52.462;10.846;2023-07-31T04:29:16;15.1;97.8
74484;SHT31;62942;52.462;10.846;2023-07-31T04:30:26;15.1;97.8
74484;SHT31;62942;52.462;10.846;2023-07-31T04:31:36;15.1;97.8
74484;SHT31;62942;52.462;10.846;2023-07-31T04:32:46;15.1;97.8
74484;SHT31;62942;52.462;10.846;2023-07-31T04:33:56;15.1;97.8
74484;SHT31;62942;52.462;10.846;2023-07-31T04:35:06;15.1;97.8
74484;SHT31;62942;52.462;10.846;2023-07-31T04:36:15;15.1;97.8
74484;SHT31;62942;52.462;10.846;2023-07-31T04:37:15;15.1;97.8
74484;SHT31;62942;52.462;10.846;2023-07-31T04:38:26;15.2;97.8
74484;SHT31;62942;52.462;10.846;2023-07-31T04:39:35;15.2;97.8
74484;SHT31;62942;52.462;10.846;2023-07-31T04:40:46;15.1;97.8
74484;SHT31;62942;52.462;10.846;2023-07-31T04:41:56;15.1;97.8
74484;SHT31;62942;52.462;10.846;2023-07-31T04:43:06;15.2;97.8
74484;SHT31;62942;52.462;10.846;2023-07-31T04:44:16;15.2;97.9
74484;SHT31;62942;52.462;10.846;2023-07-31T04:45:26;15.2;97.8
74484;SHT31;62942;52.462;10.846;2023-07-31T04:46:35;15.2;97.8
74484;SHT31;62942;52.462;10.846;2023-07-31T04:47:46;15.2;97.8
74484;SHT31;62942;52.462;10.846;2023-07-31T04:48:56;15.2;97.9
74484;SHT31;62942;52.462;10.846;2023-07-31T04:49:55;15.2;97.8
74484;SHT31;62942;52.462;10.846;2023-07-31T04:50:55;15.3;97.9
74484;SHT31;62942;52.462;10.846;2023-07-31T04:51:55;15.3;97.9
74484;SHT31;62942;52.462;10.846;2023-07-31T04:53:05;15.3;97.9
74484;SHT31;62942;52.462;10.846;2023-07-31T04:54:16;15.3;97.9
74484;SHT31;62942;52.462;10.846;2023-07-31T04:55:25;15.3;97.9
74484;SHT31;62942;52.462;10.846;2023-07-31T04:56:35;15.3;97.9
74484;SHT31;62942;52.462;10.846;2023-07-31T04:57:35;15.3;97.9
74484;SHT31;62942;52.462;10.846;2023-07-31T04:58:46;15.3;97.9
74484;SHT31;62942;52.462;10.846;2023-07-31T04:59:55;15.3;97.8
74484;SHT31;62942;52.462;10.846;2023-07-31T05:01:06;15.4;97.9
74484;SHT31;62942;52.462;10.846;2023-07-31T05:02:15;15.4;97.9
74484;SHT31;62942;52.462;10.846;2023-07-31T05:03:16;15.4;97.9
74484;SHT31;62942;52.462;10.846;2023-07-31T05:04:15;15.4;97.8
74484;SHT31;62942;52.462;10.846;2023-07-31T05:05:25;15.5;97.8
74484;SHT31;62942;52.462;10.846;2023-07-31T05:06:35;15.5;97.8
74484;SHT31;62942;52.462;10.846;2023-07-31T05:07:35;15.5;97.8
74484;SHT31;62942;52.462;10.846;2023-07-31T05:08:45;15.5;97.8
74484;SHT31;62942;52.462;10.846;2023-07-31T05:09:55;15.5;97.6
74484;SHT31;62942;52.462;10.846;2023-07-31T05:10:55;15.5;97.7
74484;SHT31;62942;52.462;10.846;2023-07-31T05:12:06;15.5;97.7
74484;SHT31;62942;52.462;10.846;2023-07-31T05:13:15;15.5;97.6
74484;SHT31;62942;52.462;10.846;2023-07-31T05:14:26;15.6;97.6
74484;SHT31;62942;52.462;10.846;2023-07-31T05:15:35;15.6;97.5
74484;SHT31;62942;52.462;10.846;2023-07-31T05:16:35;15.6;97.5
74484;SHT31;62942;52.462;10.846;2023-07-31T05:17:45;15.6;97.5
74484;SHT31;62942;52.462;10.846;2023-07-31T05:18:46;15.6;97.5
74484;SHT31;62942;52.462;10.846;2023-07-31T05:19:56;15.6;97.4
74484;SHT31;62942;52.462;10.846;2023-07-31T05:21:05;15.6;97.3
74484;SHT31;62942;52.462;10.846;2023-07-31T05:22:05;15.6;97.3
74484;SHT31;62942;52.462;10.846;2023-07-31T05:23:15;15.6;97.4
74484;SHT31;62942;52.462;10.846;2023-07-31T05:24:25;15.6;97.4
74484;SHT31;62942;52.462;10.846;2023-07-31T05:25:25;15.6;97.3
74484;SHT31;62942;52.462;10.846;2023-07-31T05:26:35;15.6;97.2
74484;SHT31;62942;52.462;10.846;2023-07-31T05:27:35;15.6;97.2
74484;SHT31;62942;52.462;10.846;2023-07-31T05:28:35;15.6;97.1
74484;SHT31;62942;52.462;10.846;2023-07-31T05:29:45;15.6;96.9
74484;SHT31;62942;52.462;10.846;2023-07-31T05:30:58;15.6;96.7
74484;SHT31;62942;52.462;10.846;2023-07-31T05:32:06;15.6;96.8
74484;SHT31;62942;52.462;10.846;2023-07-31T05:33:15;15.5;96.8
74484;SHT31;62942;52.462;10.846;2023-07-31T05:34:15;15.5;96.9
74484;SHT31;62942;52.462;10.846;2023-07-31T05:35:25;15.5;96.8
74484;SHT31;62942;52.462;10.846;2023-07-31T05:36:35;15.5;96.7
74484;SHT31;62942;52.462;10.846;2023-07-31T05:37:45;15.5;96.5
74484;SHT31;62942;52.462;10.846;2023-07-31T05:38:45;15.4;96.1
74484;SHT31;62942;52.462;10.846;2023-07-31T05:39:45;15.4;96
74484;SHT31;62942;52.462;10.846;2023-07-31T05:40:55;15.4;96.3
74484;SHT31;62942;52.462;10.846;2023-07-31T05:42:05;15.4;96.4
74484;SHT31;62942;52.462;10.846;2023-07-31T05:43:15;15.4;96.4
74484;SHT31;62942;52.462;10.846;2023-07-31T05:44:25;15.4;96.5
74484;SHT31;62942;52.462;10.846;2023-07-31T05:45:36;15.4;96.5
74484;SHT31;62942;52.462;10.846;2023-07-31T05:46:45;15.4;96.6
74484;SHT31;62942;52.462;10.846;2023-07-31T05:47:45;15.4;96.5
74484;SHT31;62942;52.462;10.846;2023-07-31T05:48:55;15.4;96.4
74484;SHT31;62942;52.462;10.846;2023-07-31T05:50:06;15.4;96.3
74484;SHT31;62942;52.462;10.846;2023-07-31T05:51:15;15.4;96.3
74484;SHT31;62942;52.462;10.846;2023-07-31T05:52:25;15.3;95.8
74484;SHT31;62942;52.462;10.846;2023-07-31T05:53:35;15.3;95.7
74484;SHT31;62942;52.462;10.846;2023-07-31T05:54:35;15.2;95.8
74484;SHT31;62942;52.462;10.846;2023-07-31T05:55:35;15.2;95.8
74484;SHT31;62942;52.462;10.846;2023-07-31T05:56:45;15.2;95.8
74484;SHT31;62942;52.462;10.846;2023-07-31T05:57:55;15.2;95.8
74484;SHT31;62942;52.462;10.846;2023-07-31T05:59:05;15.2;95.8
74484;SHT31;62942;52.462;10.846;2023-07-31T06:00:06;15.1;95.8
74484;SHT31;62942;52.462;10.846;2023-07-31T06:01:15;15.2;95.9
74484;SHT31;62942;52.462;10.846;2023-07-31T06:02:25;15.1;96
74484;SHT31;62942;52.462;10.846;2023-07-31T06:03:35;15.2;96
74484;SHT31;62942;52.462;10.846;2023-07-31T06:04:45;15.2;96.1
74484;SHT31;62942;52.462;10.846;2023-07-31T06:05:45;15.2;96.1
74484;SHT31;62942;52.462;10.846;2023-07-31T06:06:56;15.2;96.1
74484;SHT31;62942;52.462;10.846;2023-07-31T06:07:55;15.2;96.1
74484;SHT31;62942;52.462;10.846;2023-07-31T06:09:05;15.2;96.1
74484;SHT31;62942;52.462;10.846;2023-07-31T06:10:15;15.2;96.1
74484;SHT31;62942;52.462;10.846;2023-07-31T06:11:25;15.3;96.3
74484;SHT31;62942;52.462;10.846;2023-07-31T06:12:35;15.3;96.2
74484;SHT31;62942;52.462;10.846;2023-07-31T06:13:45;15.2;96.3
74484;SHT31;62942;52.462;10.846;2023-07-31T06:14:45;15.2;96.3
74484;SHT31;62942;52.462;10.846;2023-07-31T06:15:45;15.2;96.3
74484;SHT31;62942;52.462;10.846;2023-07-31T06:16:55;15.2;96.2
74484;SHT31;62942;52.462;10.846;2023-07-31T06:17:55;15.3;96.3
74484;SHT31;62942;52.462;10.846;2023-07-31T06:19:05;15.2;96.2
74484;SHT31;62942;52.462;10.846;2023-07-31T06:20:15;15.2;96.3
74484;SHT31;62942;52.462;10.846;2023-07-31T06:21:25;15.2;96.3
74484;SHT31;62942;52.462;10.846;2023-07-31T06:22:35;15.2;96.4
74484;SHT31;62942;52.462;10.846;2023-07-31T06:23:35;15.2;96.4
74484;SHT31;62942;52.462;10.846;2023-07-31T06:24:46;15.2;96.4
74484;SHT31;62942;52.462;10.846;2023-07-31T06:25:56;15.2;96.4
74484;SHT31;62942;52.462;10.846;2023-07-31T06:27:06;15.2;96.5
74484;SHT31;62942;52.462;10.846;2023-07-31T06:28:15;15.1;96.5
74484;SHT31;62942;52.462;10.846;2023-07-31T06:29:15;15.1;96.5
74484;SHT31;62942;52.462;10.846;2023-07-31T06:30:25;15.1;96.7
74484;SHT31;62942;52.462;10.846;2023-07-31T06:31:25;15.1;96.7
74484;SHT31;62942;52.462;10.846;2023-07-31T06:32:25;15.1;96.7
74484;SHT31;62942;52.462;10.846;2023-07-31T06:33:25;15.1;96.8
74484;SHT31;62942;52.462;10.846;2023-07-31T06:34:35;15.1;96.9
74484;SHT31;62942;52.462;10.846;2023-07-31T06:35:35;15;96.8
74484;SHT31;62942;52.462;10.846;2023-07-31T06:36:46;15;96.9
74484;SHT31;62942;52.462;10.846;2023-07-31T06:37:55;15;96.9
74484;SHT31;62942;52.462;10.846;2023-07-31T06:39:05;15;97
74484;SHT31;62942;52.462;10.846;2023-07-31T06:40:06;15;97
74484;SHT31;62942;52.462;10.846;2023-07-31T06:41:15;15;97
74484;SHT31;62942;52.462;10.846;2023-07-31T06:42:15;15;97.1
74484;SHT31;62942;52.462;10.846;2023-07-31T06:43:15;15;97.1
74484;SHT31;62942;52.462;10.846;2023-07-31T06:44:15;15.1;97.2
74484;SHT31;62942;52.462;10.846;2023-07-31T06:45:25;15.1;97.1
74484;SHT31;62942;52.462;10.846;2023-07-31T06:46:35;15.1;97.1
74484;SHT31;62942;52.462;10.846;2023-07-31T06:47:45;15.1;97.3
74484;SHT31;62942;52.462;10.846;2023-07-31T06:48:45;15.1;97.3
74484;SHT31;62942;52.462;10.846;2023-07-31T06:49:45;15.2;97.3
74484;SHT31;62942;52.462;10.846;2023-07-31T06:50:55;15.2;97.4
74484;SHT31;62942;52.462;10.846;2023-07-31T06:51:55;15.2;97.4
74484;SHT31;62942;52.462;10.846;2023-07-31T06:52:55;15.3;97.4
74484;SHT31;62942;52.462;10.846;2023-07-31T06:53:55;15.3;97.4
74484;SHT31;62942;52.462;10.846;2023-07-31T06:55:03;15.4;97.4
74484;SHT31;62942;52.462;10.846;2023-07-31T06:56:05;15.5;97.4
74484;SHT31;62942;52.462;10.846;2023-07-31T06:57:05;15.5;97.4
74484;SHT31;62942;52.462;10.846;2023-07-31T06:58:05;15.5;97.3
74484;SHT31;62942;52.462;10.846;2023-07-31T06:59:05;15.6;97.4
74484;SHT31;62942;52.462;10.846;2023-07-31T07:00:15;15.6;97.3
74484;SHT31;62942;52.462;10.846;2023-07-31T07:01:25;15.7;97.2
74484;SHT31;62942;52.462;10.846;2023-07-31T07:02:25;15.7;97.1
74484;SHT31;62942;52.462;10.846;2023-07-31T07:03:25;15.7;97.1
74484;SHT31;62942;52.462;10.846;2023-07-31T07:04:35;15.7;96.9
74484;SHT31;62942;52.462;10.846;2023-07-31T07:05:45;15.7;96.9
74484;SHT31;62942;52.462;10.846;2023-07-31T07:06:55;15.8;97
74484;SHT31;62942;52.462;10.846;2023-07-31T07:08:05;15.8;96.9
74484;SHT31;62942;52.462;10.846;2023-07-31T07:09:15;15.8;96.9
74484;SHT31;62942;52.462;10.846;2023-07-31T07:10:15;15.9;97